createdAt,value
2023-02-24T00:02:00.579Z,96384.66
2023-02-24T00:04:30.591Z,96381.63
2023-02-24T00:06:59.997Z,96380.47
2023-02-24T00:09:31.081Z,96370.59
2023-02-24T00:12:01.238Z,96365.56
2023-02-24T00:14:32.478Z,96361.91
2023-02-24T00:17:00.825Z,96369.78
2023-02-24T00:19:32.859Z,96364.53
2023-02-24T00:22:03.296Z,96366.31
2023-02-24T00:24:32.290Z,96366.56
2023-02-24T00:27:07.735Z,96371.66
2023-02-24T00:29:37.620Z,96372.97
2023-02-24T00:32:08.097Z,96366.97
2023-02-24T00:34:38.307Z,96368.53
2023-02-24T00:37:08.431Z,96372.16
2023-02-24T00:39:41.705Z,96372.31
2023-02-24T00:42:12.316Z,96365.50
2023-02-24T00:44:42.133Z,96363.47
2023-02-24T00:47:11.739Z,96372.00
2023-02-24T00:49:43.112Z,96366.50
2023-02-24T00:52:15.094Z,96353.91
2023-02-24T00:54:46.238Z,96361.13
2023-02-24T00:57:14.374Z,96359.50
2023-02-24T00:59:47.537Z,96357.00
2023-02-24T01:02:16.370Z,96355.69
2023-02-24T01:04:46.100Z,96358.44
2023-02-24T01:07:16.492Z,96352.72
2023-02-24T01:09:44.758Z,96355.22
2023-02-24T01:12:38.838Z,96353.38
2023-02-24T01:15:10.087Z,96352.38
2023-02-24T01:17:40.843Z,96345.66
2023-02-24T01:20:16.617Z,96340.06
2023-02-24T01:22:48.298Z,96332.34
2023-02-24T01:25:19.349Z,96327.31
2023-02-24T01:27:47.479Z,96331.53
2023-02-24T01:30:18.614Z,96329.41
2023-02-24T01:32:48.178Z,96324.22
2023-02-24T01:35:16.516Z,96327.66
2023-02-24T01:37:46.326Z,96330.94
2023-02-24T01:40:21.633Z,96316.69
2023-02-24T01:42:50.694Z,96308.72
2023-02-24T01:45:25.190Z,96314.47
2023-02-24T01:47:55.000Z,96319.81
2023-02-24T01:50:26.322Z,96312.16
2023-02-24T01:52:59.921Z,96302.34
2023-02-24T01:55:32.717Z,96300.13
2023-02-24T01:58:04.972Z,96296.94
2023-02-24T02:00:37.905Z,96297.25
2023-02-24T02:03:12.263Z,96287.47
2023-02-24T02:05:42.260Z,96288.75
2023-02-24T02:08:12.989Z,96287.31
2023-02-24T02:10:44.354Z,96287.75
2023-02-24T02:13:14.688Z,96285.16
2023-02-24T02:15:53.621Z,96274.38
2023-02-24T02:18:33.301Z,96271.88
2023-02-24T02:21:25.900Z,96259.47
2023-02-24T02:24:27.242Z,96259.59
2023-02-24T02:27:19.913Z,96264.50
2023-02-24T02:30:26.144Z,96267.81
2023-02-24T02:33:33.869Z,96254.69
2023-02-24T02:36:13.756Z,96254.84
2023-02-24T02:38:54.120Z,96258.22
2023-02-24T02:41:28.628Z,96263.16
2023-02-24T02:44:07.532Z,96264.28
2023-02-24T02:46:42.599Z,96263.22
2023-02-24T02:49:19.190Z,96255.06
2023-02-24T02:51:52.742Z,96255.28
2023-02-24T02:54:30.543Z,96255.19
2023-02-24T02:57:05.259Z,96257.56
2023-02-24T02:59:38.708Z,96255.59
2023-02-24T03:02:14.946Z,96247.47
2023-02-24T03:04:51.362Z,96257.59
2023-02-24T03:07:23.779Z,96253.47
2023-02-24T03:09:57.028Z,96246.44
2023-02-24T03:12:27.896Z,96250.38
2023-02-24T03:15:02.208Z,96255.88
2023-02-24T03:17:37.108Z,96239.75
2023-02-24T03:20:16.965Z,96243.13
2023-02-24T03:22:50.336Z,96242.94
2023-02-24T03:25:24.341Z,96239.16
2023-02-24T03:27:58.664Z,96236.66
2023-02-24T03:30:33.672Z,96240.03
2023-02-24T03:33:06.518Z,96239.47
2023-02-24T03:35:40.249Z,96238.66
2023-02-24T03:38:11.247Z,96239.75
2023-02-24T03:40:40.552Z,96224.69
2023-02-24T03:43:16.975Z,96230.22
2023-02-24T03:45:47.639Z,96228.75
2023-02-24T03:48:17.465Z,96221.38
2023-02-24T03:50:47.395Z,96213.16
2023-02-24T03:53:41.877Z,96228.94
2023-02-24T03:56:28.735Z,96223.91
2023-02-24T03:59:15.208Z,96223.31
2023-02-24T04:01:51.914Z,96224.06
2023-02-24T04:04:30.390Z,96223.81
2023-02-24T04:07:15.317Z,96216.88
2023-02-24T04:09:52.049Z,96222.56
2023-02-24T04:12:26.974Z,96219.06
2023-02-24T04:15:08.421Z,96219.88
2023-02-24T04:17:43.018Z,96209.84
2023-02-24T04:20:15.887Z,96220.56
2023-02-24T04:22:51.954Z,96206.34
2023-02-24T04:25:25.023Z,96210.41
2023-02-24T04:27:56.874Z,96205.16
2023-02-24T04:30:29.735Z,96201.34
2023-02-24T04:32:58.323Z,96197.56
2023-02-24T04:35:27.844Z,96189.06
2023-02-24T04:37:57.921Z,96199.19
2023-02-24T04:40:27.905Z,96195.47
2023-02-24T04:42:56.025Z,96182.75
2023-02-24T04:45:27.397Z,96186.09
2023-02-24T04:48:00.892Z,96180.66
2023-02-24T04:50:31.461Z,96175.66
2023-02-24T04:53:01.590Z,96176.53
2023-02-24T04:55:34.104Z,96169.94
2023-02-24T04:58:03.004Z,96171.72
2023-02-24T05:00:35.390Z,96166.97
2023-02-24T05:03:05.814Z,96166.75
2023-02-24T05:05:35.627Z,96167.47
2023-02-24T05:08:07.404Z,96153.91
2023-02-24T05:10:40.441Z,96158.91
2023-02-24T05:13:09.536Z,96150.31
2023-02-24T05:15:41.165Z,96158.03
2023-02-24T05:18:14.206Z,96150.84
2023-02-24T05:21:03.141Z,96151.03
2023-02-24T05:23:34.041Z,96153.22
2023-02-24T05:26:08.983Z,96153.34
2023-02-24T05:28:38.038Z,96154.28
2023-02-24T05:31:08.771Z,96146.31
2023-02-24T05:33:38.781Z,96148.94
2023-02-24T05:36:09.905Z,96148.25
2023-02-24T05:38:38.435Z,96150.94
2023-02-24T05:41:15.174Z,96148.41
2023-02-24T05:43:48.220Z,96144.25
2023-02-24T05:46:16.607Z,96139.59
2023-02-24T05:48:45.065Z,96148.25
2023-02-24T05:51:13.263Z,96152.72
2023-02-24T05:53:42.414Z,96151.38
2023-02-24T05:56:12.532Z,96148.00
2023-02-24T05:58:40.699Z,96157.06
2023-02-24T06:01:16.471Z,96151.31
2023-02-24T06:03:48.043Z,96151.03
2023-02-24T06:06:16.777Z,96143.44
2023-02-24T06:08:50.073Z,96152.25
2023-02-24T06:11:21.428Z,96154.47
2023-02-24T06:13:49.758Z,96139.88
2023-02-24T06:16:19.915Z,96148.03
2023-02-24T06:18:50.755Z,96135.41
2023-02-24T06:21:20.253Z,96148.34
2023-02-24T06:23:48.469Z,96141.16
2023-02-24T06:26:19.626Z,96145.22
2023-02-24T06:28:50.011Z,96154.97
2023-02-24T06:31:18.314Z,96150.16
2023-02-24T06:33:46.472Z,96155.19
2023-02-24T06:36:15.451Z,96153.16
2023-02-24T06:38:44.025Z,96141.97
2023-02-24T06:41:11.983Z,96149.91
2023-02-24T06:43:40.996Z,96140.25
2023-02-24T06:46:11.924Z,96146.13
2023-02-24T06:48:40.749Z,96132.91
2023-02-24T06:51:15.720Z,96133.53
2023-02-24T06:53:45.014Z,96128.09
2023-02-24T06:56:15.930Z,96125.22
2023-02-24T06:58:45.125Z,96119.06
2023-02-24T07:01:16.282Z,96117.94
2023-02-24T07:03:47.541Z,96114.59
2023-02-24T07:06:23.943Z,96116.88
2023-02-24T07:08:53.165Z,96119.38
2023-02-24T07:11:22.674Z,96125.75
2023-02-24T07:13:51.086Z,96122.91
2023-02-24T07:16:25.235Z,96121.38
2023-02-24T07:18:56.699Z,96119.44
2023-02-24T07:21:26.897Z,96127.28
2023-02-24T07:23:58.921Z,96117.59
2023-02-24T07:26:30.473Z,96105.75
2023-02-24T07:28:58.520Z,96111.56
2023-02-24T07:31:27.937Z,96117.63
2023-02-24T07:33:57.682Z,96110.81
2023-02-24T07:36:30.357Z,96109.00
2023-02-24T07:39:01.740Z,96114.00
2023-02-24T07:41:31.450Z,96109.66
2023-02-24T07:44:03.246Z,96111.22
2023-02-24T07:46:33.606Z,96109.13
2023-02-24T07:49:03.536Z,96111.88
2023-02-24T07:51:32.149Z,96105.25
2023-02-24T07:54:01.467Z,96110.84
2023-02-24T07:56:31.221Z,96111.41
2023-02-24T07:59:01.958Z,96118.78
2023-02-24T08:01:39.054Z,96112.25
2023-02-24T08:04:09.119Z,96106.19
2023-02-24T08:06:46.159Z,96101.53
2023-02-24T08:09:20.809Z,96094.84
2023-02-24T08:11:52.472Z,96084.22
2023-02-24T08:14:23.664Z,96084.63
2023-02-24T08:16:59.426Z,96075.06
2023-02-24T08:19:32.905Z,96073.94
2023-02-24T08:22:19.494Z,96084.16
2023-02-24T08:24:50.267Z,96075.06
2023-02-24T08:27:20.261Z,96079.34
2023-02-24T08:29:59.046Z,96078.84
2023-02-24T08:32:34.091Z,96080.56
2023-02-24T08:35:04.845Z,96075.16
2023-02-24T08:37:39.835Z,96072.78
2023-02-24T08:40:29.765Z,96069.94
2023-02-24T08:42:59.628Z,96073.09
2023-02-24T08:45:29.355Z,96070.91
2023-02-24T08:48:00.777Z,96065.59
2023-02-24T08:50:31.213Z,96058.09
2023-02-24T08:53:01.184Z,96052.91
2023-02-24T08:55:33.024Z,96048.81
2023-02-24T08:58:02.472Z,96053.41
2023-02-24T09:00:49.096Z,96047.28
2023-02-24T09:03:28.988Z,96044.38
2023-02-24T09:06:04.669Z,96044.72
2023-02-24T09:08:34.940Z,96034.38
2023-02-24T09:11:08.171Z,96033.78
2023-02-24T09:13:37.402Z,96023.97
2023-02-24T09:16:06.394Z,96013.69
2023-02-24T09:18:39.672Z,96012.56
2023-02-24T09:21:37.400Z,96010.41
2023-02-24T09:24:07.482Z,96006.69
2023-02-24T09:26:43.355Z,96000.78
2023-02-24T09:29:33.775Z,96004.41
2023-02-24T09:32:13.572Z,95996.75
2023-02-24T09:34:44.764Z,95995.06
2023-02-24T09:37:24.949Z,95984.94
2023-02-24T09:40:23.640Z,95983.38
2023-02-24T09:42:58.430Z,95991.78
2023-02-24T09:45:33.916Z,95989.66
2023-02-24T09:48:11.512Z,95988.88
2023-02-24T09:51:04.504Z,95979.53
2023-02-24T09:53:49.578Z,95982.78
2023-02-24T09:56:26.490Z,95975.44
2023-02-24T09:59:10.397Z,95974.19
2023-02-24T10:01:45.831Z,95963.91
2023-02-24T10:04:30.839Z,95964.69
2023-02-24T10:07:06.070Z,95959.16
2023-02-24T10:09:38.368Z,95959.59
2023-02-24T10:12:15.065Z,95953.34
2023-02-24T10:14:53.005Z,95958.00
2023-02-24T10:17:30.733Z,95955.72
2023-02-24T10:20:13.794Z,95950.88
2023-02-24T10:22:51.555Z,95944.38
2023-02-24T10:25:41.260Z,95941.22
2023-02-24T10:28:23.165Z,95940.63
2023-02-24T10:31:04.237Z,95936.03
2023-02-24T10:33:39.191Z,95931.47
2023-02-24T10:36:11.029Z,95924.78
2023-02-24T10:38:45.519Z,95923.63
2023-02-24T10:41:14.827Z,95912.66
2023-02-24T10:43:54.055Z,95902.34
2023-02-24T10:46:40.214Z,95886.75
2023-02-24T10:49:16.675Z,95891.81
2023-02-24T10:51:52.327Z,95874.81
2023-02-24T10:55:05.206Z,95866.38
2023-02-24T10:57:44.735Z,95864.94
2023-02-24T11:00:51.605Z,95862.50
2023-02-24T11:03:35.862Z,95846.75
2023-02-24T11:06:30.435Z,95845.66
2023-02-24T11:09:19.223Z,95849.03
2023-02-24T11:12:07.324Z,95839.19
2023-02-24T11:15:19.769Z,95823.19
2023-02-24T11:17:51.951Z,95825.44
2023-02-24T11:20:46.063Z,95821.31
2023-02-24T11:23:20.278Z,95814.91
2023-02-24T11:25:53.545Z,95808.38
2023-02-24T11:28:38.596Z,95801.53
2023-02-24T11:31:17.410Z,95793.84
2023-02-24T11:33:57.326Z,95788.81
2023-02-24T11:36:37.235Z,95786.75
2023-02-24T11:39:22.720Z,95784.13
2023-02-24T11:41:55.565Z,95769.94
2023-02-24T11:44:31.676Z,95754.38
2023-02-24T11:47:07.358Z,95748.19
2023-02-24T11:49:42.255Z,95754.59
2023-02-24T11:52:17.262Z,95753.03
2023-02-24T11:54:51.671Z,95740.56
2023-02-24T11:57:25.038Z,95734.75
2023-02-24T12:00:04.902Z,95734.53
2023-02-24T12:02:47.382Z,95730.03
2023-02-24T12:05:18.074Z,95731.41
2023-02-24T12:07:51.700Z,95725.25
2023-02-24T12:10:24.362Z,95713.03
2023-02-24T12:13:02.068Z,95704.41
2023-02-24T12:15:34.996Z,95713.59
2023-02-24T12:18:13.632Z,95703.97
2023-02-24T12:20:48.460Z,95698.75
2023-02-24T12:23:19.168Z,95688.91
2023-02-24T12:26:04.903Z,95684.63
2023-02-24T12:28:46.664Z,95686.94
2023-02-24T12:31:27.355Z,95682.81
2023-02-24T12:34:08.686Z,95671.00
2023-02-24T12:36:49.183Z,95672.84
2023-02-24T12:39:22.480Z,95667.91
2023-02-24T12:42:01.302Z,95656.41
2023-02-24T12:44:38.098Z,95651.25
2023-02-24T12:47:12.733Z,95647.56
2023-02-24T12:49:59.688Z,95654.13
2023-02-24T12:52:35.544Z,95630.41
2023-02-24T12:55:12.839Z,95630.09
2023-02-24T12:57:49.242Z,95621.06
2023-02-24T13:00:25.560Z,95619.59
2023-02-24T13:03:05.722Z,95615.69
2023-02-24T13:05:42.137Z,95617.50
2023-02-24T13:08:19.833Z,95610.25
2023-02-24T13:10:51.933Z,95606.66
2023-02-24T13:13:29.262Z,95600.84
2023-02-24T13:16:00.172Z,95598.25
2023-02-24T13:18:32.326Z,95598.34
2023-02-24T13:21:06.931Z,95594.63
2023-02-24T13:23:35.744Z,95599.75
2023-02-24T13:26:05.002Z,95595.56
2023-02-24T13:28:36.358Z,95582.25
2023-02-24T13:31:07.400Z,95581.63
2023-02-24T13:33:39.100Z,95590.63
2023-02-24T13:36:12.642Z,95585.84
2023-02-24T13:38:42.765Z,95577.81
2023-02-24T13:41:36.240Z,95574.31
2023-02-24T13:44:21.968Z,95565.56
2023-02-24T13:46:59.541Z,95566.28
2023-02-24T13:49:37.124Z,95560.97
2023-02-24T13:52:15.714Z,95561.88
2023-02-24T13:55:06.454Z,95554.91
2023-02-24T13:57:57.362Z,95556.81
2023-02-24T14:00:36.061Z,95562.03
2023-02-24T14:03:12.694Z,95554.31
2023-02-24T14:05:44.253Z,95553.28
2023-02-24T14:08:21.117Z,95546.31
2023-02-24T14:10:53.834Z,95555.25
2023-02-24T14:13:27.760Z,95547.63
2023-02-24T14:15:56.464Z,95550.84
2023-02-24T14:18:27.356Z,95535.75
2023-02-24T14:20:58.620Z,95545.78
2023-02-24T14:23:29.223Z,95534.50
2023-02-24T14:25:59.746Z,95530.50
2023-02-24T14:28:31.735Z,95527.09
2023-02-24T14:31:02.753Z,95514.84
2023-02-24T14:33:33.430Z,95522.72
2023-02-24T14:36:03.825Z,95519.00
2023-02-24T14:38:34.776Z,95515.09
2023-02-24T14:41:03.829Z,95506.47
2023-02-24T14:43:31.926Z,95507.63
2023-02-24T14:46:06.607Z,95507.31
2023-02-24T14:48:35.267Z,95493.38
2023-02-24T14:51:10.603Z,95493.56
2023-02-24T14:53:45.793Z,95493.44
2023-02-24T14:56:14.673Z,95487.78
2023-02-24T14:58:47.813Z,95483.53
2023-02-24T15:01:21.736Z,95481.78
2023-02-24T15:03:52.489Z,95477.97
2023-02-24T15:06:26.721Z,95475.34
2023-02-24T15:08:59.544Z,95463.84
2023-02-24T15:11:31.294Z,95460.91
2023-02-24T15:14:02.612Z,95463.09
2023-02-24T15:16:37.763Z,95457.47
2023-02-24T15:19:06.447Z,95454.13
2023-02-24T15:21:41.148Z,95461.88
2023-02-24T15:24:19.726Z,95451.56
2023-02-24T15:26:54.126Z,95444.16
2023-02-24T15:29:26.883Z,95431.94
2023-02-24T15:31:56.860Z,95429.91
2023-02-24T15:34:28.197Z,95420.34
2023-02-24T15:37:01.470Z,95420.34
2023-02-24T15:39:31.674Z,95415.09
2023-02-24T15:42:08.351Z,95421.94
2023-02-24T15:44:37.891Z,95409.84
2023-02-24T15:47:20.267Z,95418.34
2023-02-24T15:49:48.496Z,95413.09
2023-02-24T15:52:23.727Z,95416.28
2023-02-24T15:54:52.358Z,95412.50
2023-02-24T15:57:21.344Z,95419.75
2023-02-24T15:59:49.676Z,95415.94
2023-02-24T16:02:20.012Z,95406.91
2023-02-24T16:04:48.252Z,95402.25
2023-02-24T16:07:20.488Z,95404.25
2023-02-24T16:09:50.909Z,95399.00
2023-02-24T16:12:22.439Z,95399.59
2023-02-24T16:14:55.783Z,95387.78
2023-02-24T16:17:31.561Z,95387.69
2023-02-24T16:20:00.286Z,95390.19
2023-02-24T16:22:30.656Z,95391.78
2023-02-24T16:24:58.641Z,95393.75
2023-02-24T16:27:29.561Z,95386.72
2023-02-24T16:29:58.146Z,95372.72
2023-02-24T16:32:28.128Z,95376.00
2023-02-24T16:34:56.509Z,95373.00
2023-02-24T16:37:27.565Z,95366.00
2023-02-24T16:39:57.389Z,95381.34
2023-02-24T16:42:25.284Z,95374.72
2023-02-24T16:44:53.262Z,95375.19
2023-02-24T16:47:24.426Z,95364.88
2023-02-24T16:49:55.388Z,95357.63
2023-02-24T16:52:24.941Z,95354.44
2023-02-24T16:54:53.172Z,95354.78
2023-02-24T16:57:25.787Z,95358.78
2023-02-24T16:59:54.474Z,95355.63
2023-02-24T17:02:25.240Z,95361.31
2023-02-24T17:04:54.191Z,95358.78
2023-02-24T17:07:22.712Z,95361.34
2023-02-24T17:09:50.744Z,95361.41
2023-02-24T17:12:22.548Z,95353.25
2023-02-24T17:14:51.035Z,95348.38
2023-02-24T17:17:20.691Z,95337.78
2023-02-24T17:19:48.742Z,95339.38
2023-02-24T17:22:17.796Z,95342.25
2023-02-24T17:24:46.060Z,95347.75
2023-02-24T17:27:14.132Z,95346.44
2023-02-24T17:29:43.655Z,95341.44
2023-02-24T17:32:11.911Z,95338.81
2023-02-24T17:34:40.351Z,95341.81
2023-02-24T17:37:08.534Z,95347.91
2023-02-24T17:39:36.968Z,95343.91
2023-02-24T17:42:05.106Z,95341.28
2023-02-24T17:44:33.741Z,95334.25
2023-02-24T17:47:03.295Z,95338.59
2023-02-24T17:49:31.314Z,95326.84
2023-02-24T17:51:59.738Z,95330.53
2023-02-24T17:54:27.855Z,95325.88
2023-02-24T17:56:55.698Z,95324.38
2023-02-24T17:59:24.096Z,95318.50
2023-02-24T18:01:52.188Z,95320.44
2023-02-24T18:04:22.164Z,95317.28
2023-02-24T18:06:50.710Z,95322.31
2023-02-24T18:09:20.204Z,95311.94
2023-02-24T18:11:48.549Z,95316.72
2023-02-24T18:14:16.671Z,95310.88
2023-02-24T18:16:44.935Z,95320.38
2023-02-24T18:19:13.250Z,95311.81
2023-02-24T18:21:42.923Z,95313.44
2023-02-24T18:24:39.396Z,95313.13
2023-02-24T18:27:07.759Z,95312.63
2023-02-24T18:29:35.908Z,95307.81
2023-02-24T18:32:05.110Z,95309.06
2023-02-24T18:34:33.413Z,95297.50
2023-02-24T18:37:02.967Z,95295.25
2023-02-24T18:39:31.371Z,95293.50
2023-02-24T18:41:59.996Z,95283.94
2023-02-24T18:44:27.982Z,95281.59
2023-02-24T18:46:56.022Z,95284.53
2023-02-24T18:49:24.080Z,95282.56
2023-02-24T18:51:52.214Z,95279.91
2023-02-24T18:54:21.914Z,95281.53
2023-02-24T18:56:50.033Z,95273.09
2023-02-24T18:59:18.225Z,95272.84
2023-02-24T19:01:46.163Z,95267.38
2023-02-24T19:04:16.174Z,95265.38
2023-02-24T19:06:49.003Z,95265.31
2023-02-24T19:09:21.707Z,95256.81
2023-02-24T19:11:54.282Z,95262.00
2023-02-24T19:14:22.686Z,95255.66
2023-02-24T19:16:50.946Z,95254.09
2023-02-24T19:19:19.018Z,95257.50
2023-02-24T19:21:48.494Z,95256.22
2023-02-24T19:24:17.721Z,95259.97
2023-02-24T19:26:47.579Z,95255.63
2023-02-24T19:29:17.678Z,95249.50
2023-02-24T19:31:46.606Z,95253.06
2023-02-24T19:34:15.622Z,95249.25
2023-02-24T19:36:43.745Z,95235.88
2023-02-24T19:39:22.751Z,95241.00
2023-02-24T19:41:51.188Z,95244.06
2023-02-24T19:44:20.651Z,95239.31
2023-02-24T19:46:49.046Z,95239.91
2023-02-24T19:49:17.418Z,95227.72
2023-02-24T19:51:48.139Z,95222.66
2023-02-24T19:54:17.217Z,95227.59
2023-02-24T19:56:45.221Z,95214.53
2023-02-24T19:59:13.467Z,95209.22
2023-02-24T20:01:43.403Z,95214.13
2023-02-24T20:04:12.925Z,95202.53
2023-02-24T20:06:43.067Z,95212.31
2023-02-24T20:09:15.542Z,95212.69
2023-02-24T20:11:45.464Z,95207.09
2023-02-24T20:14:14.954Z,95216.91
2023-02-24T20:16:45.636Z,95208.41
2023-02-24T20:19:15.871Z,95214.38
2023-02-24T20:21:43.895Z,95219.84
2023-02-24T20:24:14.698Z,95209.44
2023-02-24T20:26:46.398Z,95210.81
2023-02-24T20:29:15.630Z,95206.59
2023-02-24T20:31:46.525Z,95211.06
2023-02-24T20:34:16.740Z,95197.06
2023-02-24T20:36:44.851Z,95198.31
2023-02-24T20:39:13.552Z,95187.38
2023-02-24T20:41:41.903Z,95195.94
2023-02-24T20:44:10.660Z,95184.00
2023-02-24T20:46:39.658Z,95187.56
2023-02-24T20:49:11.843Z,95189.19
2023-02-24T20:51:40.149Z,95187.06
2023-02-24T20:54:10.419Z,95185.63
2023-02-24T20:56:40.180Z,95193.66
2023-02-24T20:59:10.124Z,95187.22
2023-02-24T21:01:39.402Z,95188.44
2023-02-24T21:04:07.996Z,95181.91
2023-02-24T21:06:38.302Z,95191.94
2023-02-24T21:09:07.013Z,95181.72
2023-02-24T21:11:35.393Z,95178.72
2023-02-24T21:14:03.336Z,95184.38
2023-02-24T21:16:31.727Z,95178.88
2023-02-24T21:19:00.148Z,95172.03
2023-02-24T21:21:29.436Z,95171.22
2023-02-24T21:23:58.743Z,95172.91
2023-02-24T21:26:29.234Z,95169.22
2023-02-24T21:28:59.366Z,95180.31
2023-02-24T21:31:28.793Z,95175.81
2023-02-24T21:33:57.304Z,95171.28
2023-02-24T21:36:28.153Z,95160.13
2023-02-24T21:38:57.904Z,95159.31
2023-02-24T21:41:26.008Z,95155.75
2023-02-24T21:43:55.815Z,95165.66
2023-02-24T21:46:49.826Z,95157.78
2023-02-24T21:49:18.277Z,95158.91
2023-02-24T21:51:46.898Z,95153.38
2023-02-24T21:54:16.489Z,95159.75
2023-02-24T21:56:44.514Z,95143.66
2023-02-24T21:59:13.032Z,95146.41
2023-02-24T22:01:44.539Z,95135.47
2023-02-24T22:04:15.298Z,95145.63
2023-02-24T22:06:44.846Z,95137.66
2023-02-24T22:09:19.461Z,95137.66
2023-02-24T22:11:50.189Z,95138.53
2023-02-24T22:14:20.640Z,95136.91
2023-02-24T22:16:48.810Z,95132.06
2023-02-24T22:19:19.220Z,95123.03
2023-02-24T22:21:47.437Z,95128.47
2023-02-24T22:24:17.368Z,95123.00
2023-02-24T22:26:46.082Z,95128.78
2023-02-24T22:29:15.578Z,95131.72
2023-02-24T22:31:47.635Z,95134.56
2023-02-24T22:34:17.212Z,95126.25
2023-02-24T22:36:45.309Z,95127.28
2023-02-24T22:39:16.623Z,95127.38
2023-02-24T22:41:45.639Z,95124.28
2023-02-24T22:44:19.127Z,95121.50
2023-02-24T22:46:48.374Z,95123.50
2023-02-24T22:49:16.635Z,95128.47
2023-02-24T22:51:56.545Z,95125.66
2023-02-24T22:54:24.579Z,95117.75
2023-02-24T22:56:53.859Z,95122.72
2023-02-24T22:59:24.607Z,95114.22
2023-02-24T23:01:53.813Z,95128.75
2023-02-24T23:04:21.779Z,95120.78
2023-02-24T23:06:49.702Z,95102.41
2023-02-24T23:09:20.113Z,95116.84
2023-02-24T23:11:48.940Z,95110.31
2023-02-24T23:14:17.551Z,95089.38
2023-02-24T23:16:48.403Z,95092.06
2023-02-24T23:19:18.545Z,95087.88
2023-02-24T23:21:49.802Z,95086.41
2023-02-24T23:24:20.173Z,95079.69
2023-02-24T23:26:51.444Z,95071.63
2023-02-24T23:29:20.719Z,95066.16
2023-02-24T23:31:50.477Z,95073.53
2023-02-24T23:34:19.509Z,95066.91
2023-02-24T23:36:48.221Z,95075.41
2023-02-24T23:39:20.557Z,95068.75
2023-02-24T23:41:48.619Z,95066.66
2023-02-24T23:44:17.013Z,95065.25
2023-02-24T23:46:45.654Z,95063.66
2023-02-24T23:49:14.900Z,95067.75
2023-02-24T23:51:48.417Z,95064.19
2023-02-24T23:54:17.442Z,95055.72
2023-02-24T23:56:46.572Z,95057.22
2023-02-24T23:59:15.092Z,95059.44
